Great Falls Observed Data For Previous 48 Hours

Caption
Day and Hour Reservoir Elevation (behind dam)* Tailwater Elevation (below dam)* Average Hourly Discharge*
3/22/2019 1 AM CDT 790.72 656.29 3,544
3/22/2019 2 AM CDT 790.70 656.28 3,547
3/22/2019 3 AM CDT 790.67 656.27 3,549
3/22/2019 4 AM CDT 790.64 656.27 3,556
3/22/2019 5 AM CDT 790.61 656.25 3,565
3/22/2019 6 AM CDT 790.58 656.26 3,577
3/22/2019 7 AM CDT 790.54 656.25 3,595
3/22/2019 8 AM CDT 790.51 656.23 3,589
3/22/2019 9 AM CDT 790.47 656.25 3,583
3/22/2019 10 AM CDT 790.44 656.24 3,580
3/22/2019 11 AM CDT 790.40 656.22 3,599
3/22/2019 12 PM CDT 790.37 656.22 3,601
3/22/2019 1 PM CDT 790.34 656.19 3,110
3/22/2019 2 PM CDT 790.54 653.29 1,210
3/22/2019 3 PM CDT 790.44 656.16 3,216
3/22/2019 4 PM CDT 790.47 656.12 3,563
3/22/2019 5 PM CDT 790.43 656.13 3,595
3/22/2019 6 PM CDT 790.33 656.13 3,604
3/22/2019 7 PM CDT 790.35 656.15 3,617
3/22/2019 8 PM CDT 790.31 656.13 3,607
3/22/2019 9 PM CDT 790.26 656.14 3,620
3/22/2019 10 PM CDT 790.23 656.15 3,632
3/22/2019 11 PM CDT 790.18 656.14 3,629
3/23/2019 12 AM CDT 790.13 656.14 3,624
3/23/2019 1 AM CDT 790.34 652.85 160
3/23/2019 2 AM CDT 790.41 652.86 160
3/23/2019 3 AM CDT 790.60 652.75 160
3/23/2019 4 AM CDT 790.64 653.79 851
3/23/2019 5 AM CDT 790.63 656.04 3,212
3/23/2019 6 AM CDT 790.70 656.06 3,527
3/23/2019 7 AM CDT 790.63 656.09 3,549
3/23/2019 8 AM CDT 790.54 656.06 3,578
3/23/2019 9 AM CDT 790.54 656.06 3,562
3/23/2019 10 AM CDT 790.48 656.07 3,575
3/23/2019 11 AM CDT 790.41 656.06 3,568
3/23/2019 12 PM CDT 790.39 656.06 3,573
3/23/2019 1 PM CDT 790.32 655.95 2,004
3/23/2019 2 PM CDT 790.31 656.05 3,532
3/23/2019 3 PM CDT 790.40 656.05 3,553
3/23/2019 4 PM CDT 790.32 656.06 3,544
3/23/2019 5 PM CDT 790.21 656.34 3,532
3/23/2019 6 PM CDT 790.20 656.04 3,539
3/23/2019 7 PM CDT 790.14 656.06 3,539
3/23/2019 8 PM CDT 790.06 656.05 3,545
3/23/2019 9 PM CDT 790.04 656.06 3,548
3/23/2019 10 PM CDT 790.00 655.56 3,135
3/23/2019 11 PM CDT 790.16 652.07 851
3/24/2019 12 AM CDT 790.25 651.92 769

Elevations are in feet above sea level. Discharges are in cubic feet per second and are reported at the end of the hour.